createdAt,value
2023-09-28T00:00:35.710Z,98450.16
2023-09-28T00:03:05.318Z,98445.06
2023-09-28T00:05:32.825Z,98440.81
2023-09-28T00:08:01.735Z,98436.59
2023-09-28T00:10:32.810Z,98431.41
2023-09-28T00:13:00.736Z,98439.28
2023-09-28T00:15:27.628Z,98428.22
2023-09-28T00:17:56.240Z,98410.31
2023-09-28T00:20:24.754Z,98402.78
2023-09-28T00:22:53.110Z,98388.28
2023-09-28T00:25:23.233Z,98379.94
2023-09-28T00:27:54.295Z,98374.97
2023-09-28T00:30:23.685Z,98362.97
2023-09-28T00:32:53.552Z,98360.59
2023-09-28T00:35:21.341Z,98347.03
2023-09-28T00:37:50.583Z,98339.50
2023-09-28T00:40:19.756Z,98332.81
2023-09-28T00:42:49.676Z,98324.13
2023-09-28T00:45:18.855Z,98323.41
2023-09-28T00:47:48.481Z,98316.56
2023-09-28T00:50:16.841Z,98321.72
2023-09-28T00:52:47.310Z,98318.44
2023-09-28T00:55:16.607Z,98314.09
2023-09-28T00:57:45.651Z,98303.03
2023-09-28T01:00:19.583Z,98300.56
2023-09-28T01:02:52.637Z,98293.81
2023-09-28T01:05:19.913Z,98282.78
2023-09-28T01:07:48.037Z,98275.25
2023-09-28T01:10:21.179Z,98266.75
2023-09-28T01:12:49.910Z,98255.81
2023-09-28T01:15:17.978Z,98242.28
2023-09-28T01:17:46.522Z,98232.97
2023-09-28T01:20:19.502Z,98234.75
2023-09-28T01:22:51.194Z,98224.53
2023-09-28T01:25:20.521Z,98224.53
2023-09-28T01:27:48.842Z,98214.28
2023-09-28T01:30:17.111Z,98225.56
2023-09-28T01:32:45.387Z,98216.97
2023-09-28T01:35:12.672Z,98214.38
2023-09-28T01:37:52.549Z,98225.56
2023-09-28T01:40:19.983Z,98231.56
2023-09-28T01:42:47.868Z,98231.44
2023-09-28T01:45:15.854Z,98243.31
2023-09-28T01:47:43.815Z,98268.97
2023-09-28T01:50:11.556Z,98266.28
2023-09-28T01:52:39.515Z,98262.88
2023-09-28T01:55:08.304Z,98256.97
2023-09-28T01:57:36.086Z,98268.03
2023-09-28T02:00:06.621Z,98269.81
2023-09-28T02:02:35.641Z,98273.22
2023-09-28T02:05:04.027Z,98274.03
2023-09-28T02:07:36.498Z,98277.44
2023-09-28T02:10:04.943Z,98289.44
2023-09-28T02:12:34.131Z,98290.25
2023-09-28T02:15:06.256Z,98277.56
2023-09-28T02:17:34.094Z,98265.66
2023-09-28T02:20:01.006Z,98255.53
2023-09-28T02:22:28.829Z,98244.59
2023-09-28T02:24:55.885Z,98237.75
2023-09-28T02:27:23.673Z,98242.13
2023-09-28T02:29:51.836Z,98239.53
2023-09-28T02:32:19.665Z,98249.88
2023-09-28T02:34:46.522Z,98248.94
2023-09-28T02:37:14.899Z,98243.88
2023-09-28T02:39:42.320Z,98243.88
2023-09-28T02:42:10.542Z,98242.22
2023-09-28T02:44:37.440Z,98243.16
2023-09-28T02:47:07.358Z,98227.84
2023-09-28T02:49:34.404Z,98221.97
2023-09-28T02:52:03.073Z,98209.28
2023-09-28T02:54:30.927Z,98197.38
2023-09-28T02:56:58.982Z,98187.28
2023-09-28T02:59:27.781Z,98171.28
2023-09-28T03:01:56.331Z,98162.00
2023-09-28T03:04:25.395Z,98150.94
2023-09-28T03:06:53.678Z,98149.28
2023-09-28T03:09:21.121Z,98147.63
2023-09-28T03:11:50.235Z,98149.38
2023-09-28T03:14:17.885Z,98141.75
2023-09-28T03:16:45.750Z,98146.91
2023-09-28T03:19:12.627Z,98145.97
2023-09-28T03:21:43.578Z,98150.31
2023-09-28T03:24:10.456Z,98149.50
2023-09-28T03:26:39.167Z,98158.91
2023-09-28T03:29:06.102Z,98159.72
2023-09-28T03:31:36.442Z,98157.16
2023-09-28T03:34:03.287Z,98157.16
2023-09-28T03:36:33.368Z,98166.53
2023-09-28T03:39:02.583Z,98163.03
2023-09-28T03:41:32.112Z,98184.44
2023-09-28T03:43:59.927Z,98177.50
2023-09-28T03:46:28.374Z,98180.91
2023-09-28T03:48:56.190Z,98185.13
2023-09-28T03:51:24.300Z,98189.59
2023-09-28T03:53:52.302Z,98194.66
2023-09-28T03:56:22.587Z,98192.88
2023-09-28T03:58:50.406Z,98195.59
2023-09-28T04:01:18.465Z,98187.84
2023-09-28T04:03:46.304Z,98187.00
2023-09-28T04:06:14.271Z,98184.44
2023-09-28T04:08:42.128Z,98181.97
2023-09-28T04:11:10.026Z,98179.47
2023-09-28T04:13:39.244Z,98181.22
2023-09-28T04:16:07.091Z,98172.75
2023-09-28T04:18:34.977Z,98168.53
2023-09-28T04:21:02.924Z,98166.88
2023-09-28T04:23:31.272Z,98171.13
2023-09-28T04:25:59.114Z,98169.47
2023-09-28T04:28:26.961Z,98162.53
2023-09-28T04:30:56.083Z,98164.41
2023-09-28T04:33:23.873Z,98153.34
2023-09-28T04:35:51.743Z,98152.53
2023-09-28T04:38:19.604Z,98147.34
2023-09-28T04:40:47.467Z,98149.13
2023-09-28T04:43:15.366Z,98152.63
2023-09-28T04:45:43.244Z,98156.03
2023-09-28T04:48:12.385Z,98154.28
2023-09-28T04:50:40.496Z,98164.63
2023-09-28T04:53:08.772Z,98170.50
2023-09-28T04:55:36.570Z,98177.34
2023-09-28T04:58:04.617Z,98184.16
2023-09-28T05:00:33.935Z,98185.69
2023-09-28T05:03:04.954Z,98189.91
2023-09-28T05:05:34.619Z,98207.81
2023-09-28T05:08:03.197Z,98218.84
2023-09-28T05:10:31.175Z,98225.53
2023-09-28T05:12:59.536Z,98255.31
2023-09-28T05:15:27.385Z,98273.91
2023-09-28T05:17:55.357Z,98291.78
2023-09-28T05:20:25.085Z,98304.50
2023-09-28T05:22:55.678Z,98314.63
2023-09-28T05:25:23.590Z,98324.00
2023-09-28T05:27:51.476Z,98328.13
2023-09-28T05:30:19.530Z,98330.72
2023-09-28T05:32:47.359Z,98341.81
2023-09-28T05:35:16.273Z,98346.84
2023-09-28T05:37:44.106Z,98352.03
2023-09-28T05:40:14.008Z,98360.50
2023-09-28T05:42:42.228Z,98361.22
2023-09-28T05:45:11.372Z,98375.81
2023-09-28T05:47:39.221Z,98383.47
2023-09-28T05:50:08.475Z,98393.69
2023-09-28T05:52:36.417Z,98395.22
2023-09-28T05:55:04.775Z,98404.66
2023-09-28T05:57:34.074Z,98421.59
2023-09-28T06:00:08.145Z,98432.66
2023-09-28T06:02:36.115Z,98456.44
2023-09-28T06:05:05.696Z,98473.31
2023-09-28T06:07:33.572Z,98486.97
2023-09-28T06:10:01.407Z,98502.25
2023-09-28T06:12:29.490Z,98517.59
2023-09-28T06:14:59.854Z,98532.81
2023-09-28T06:17:27.749Z,98548.09
2023-09-28T06:19:58.288Z,98566.75
2023-09-28T06:22:26.763Z,98591.56
2023-09-28T06:24:55.937Z,98600.78
2023-09-28T06:27:23.746Z,98620.22
2023-09-28T06:29:54.517Z,98645.91
2023-09-28T06:32:24.698Z,98667.13
2023-09-28T06:34:52.756Z,98682.34
2023-09-28T06:37:20.558Z,98704.41
2023-09-28T06:39:48.458Z,98728.25
2023-09-28T06:42:34.850Z,98751.97
2023-09-28T06:45:04.902Z,98785.34
2023-09-28T06:47:50.643Z,98804.94
2023-09-28T06:50:21.978Z,98826.91
2023-09-28T06:52:52.863Z,98843.06
2023-09-28T06:55:20.832Z,98864.31
2023-09-28T06:57:49.795Z,98888.97
2023-09-28T07:00:18.854Z,98908.56
2023-09-28T07:02:48.719Z,98940.19
2023-09-28T07:05:17.712Z,98957.06
2023-09-28T07:07:49.885Z,98981.03
2023-09-28T07:10:18.911Z,98997.13
2023-09-28T07:12:48.416Z,99027.91
2023-09-28T07:15:16.264Z,99035.50
2023-09-28T07:17:44.245Z,99049.09
2023-09-28T07:20:16.316Z,99069.53
2023-09-28T07:22:44.308Z,99093.41
2023-09-28T07:25:12.224Z,99109.47
2023-09-28T07:27:40.332Z,99144.47
2023-09-28T07:30:09.816Z,99162.31
2023-09-28T07:32:37.852Z,99187.03
2023-09-28T07:35:06.792Z,99203.22
2023-09-28T07:37:36.057Z,99215.97
2023-09-28T07:40:05.672Z,99236.44
2023-09-28T07:42:33.536Z,99257.84
2023-09-28T07:45:01.334Z,99263.78
2023-09-28T07:47:30.145Z,99278.22
2023-09-28T07:49:58.173Z,99303.16
2023-09-28T07:52:26.336Z,99313.22
2023-09-28T07:54:55.896Z,99340.66
2023-09-28T07:57:23.717Z,99349.91
2023-09-28T07:59:51.513Z,99379.84
2023-09-28T08:02:20.074Z,99407.06
2023-09-28T08:04:50.714Z,99460.84
2023-09-28T08:07:18.728Z,99490.59
2023-09-28T08:09:46.678Z,99525.63
2023-09-28T08:12:16.039Z,99553.72
2023-09-28T08:14:43.887Z,99583.69
2023-09-28T08:17:13.709Z,99613.56
2023-09-28T08:19:41.594Z,99637.50
2023-09-28T08:22:09.405Z,99666.50
2023-09-28T08:24:37.237Z,99690.47
2023-09-28T08:27:05.462Z,99719.50
2023-09-28T08:29:35.881Z,99733.06
2023-09-28T08:32:03.980Z,99778.56
2023-09-28T08:34:38.742Z,99813.59
2023-09-28T08:37:07.684Z,99844.31
2023-09-28T08:39:37.208Z,99892.25
2023-09-28T08:42:08.268Z,99936.66
2023-09-28T08:44:39.701Z,99997.34
2023-09-28T08:47:16.869Z,100048.75
2023-09-28T08:49:46.513Z,100089.88
2023-09-28T08:52:16.110Z,100128.47
2023-09-28T08:54:44.289Z,100190.06
2023-09-28T08:57:13.129Z,100233.78
2023-09-28T08:59:43.616Z,100284.44
2023-09-28T09:02:13.109Z,100326.34
2023-09-28T09:04:41.088Z,100385.53
2023-09-28T09:07:08.942Z,100438.66
2023-09-28T09:09:38.564Z,100489.34
2023-09-28T09:12:10.330Z,100528.88
2023-09-28T09:14:39.061Z,100569.13
2023-09-28T09:17:11.862Z,100604.28
2023-09-28T09:19:41.930Z,100644.69
2023-09-28T09:22:09.899Z,100679.00
2023-09-28T09:24:54.976Z,100732.31
2023-09-28T09:27:27.452Z,100784.66
2023-09-28T09:29:58.127Z,100830.22
2023-09-28T09:32:28.025Z,100872.34
2023-09-28T09:34:56.536Z,100906.81
2023-09-28T09:37:24.676Z,100951.53
2023-09-28T09:39:52.492Z,100995.28
2023-09-28T09:42:29.739Z,101048.63
2023-09-28T09:44:57.601Z,101096.00
2023-09-28T09:47:28.404Z,101128.69
2023-09-28T09:49:58.098Z,101166.56
2023-09-28T09:52:27.970Z,101212.28
2023-09-28T09:54:56.009Z,101239.81
2023-09-28T09:57:25.996Z,101289.84
2023-09-28T09:59:55.974Z,101324.16
2023-09-28T10:02:26.611Z,101386.28
2023-09-28T10:04:56.761Z,101436.28
2023-09-28T10:07:46.560Z,101513.94
2023-09-28T10:10:16.739Z,101569.16
2023-09-28T10:12:44.796Z,101633.94
2023-09-28T10:15:14.255Z,101676.97
2023-09-28T10:17:43.062Z,101727.91
2023-09-28T10:20:14.568Z,101792.66
2023-09-28T10:22:42.801Z,101832.44
2023-09-28T10:25:13.248Z,101878.25
2023-09-28T10:27:41.639Z,101917.94
2023-09-28T10:30:20.325Z,101973.34
2023-09-28T10:32:48.692Z,102022.63
2023-09-28T10:35:29.498Z,102058.91
2023-09-28T10:38:28.726Z,102098.69
2023-09-28T10:41:08.012Z,102146.31
2023-09-28T10:43:37.777Z,102196.47
2023-09-28T10:46:06.894Z,102261.44
2023-09-28T10:48:40.945Z,102309.91
2023-09-28T10:51:14.107Z,102367.97
2023-09-28T10:53:42.550Z,102397.34
2023-09-28T10:56:12.211Z,102436.34
2023-09-28T10:58:42.126Z,102485.84
2023-09-28T11:01:10.244Z,102524.84
2023-09-28T11:03:39.990Z,102546.44
2023-09-28T11:06:11.193Z,102601.16
2023-09-28T11:08:41.714Z,102634.94
2023-09-28T11:11:09.667Z,102660.03
2023-09-28T11:13:37.576Z,102703.44
2023-09-28T11:16:05.954Z,102745.94
2023-09-28T11:18:33.878Z,102803.28
2023-09-28T11:21:04.506Z,102837.09
2023-09-28T11:23:32.435Z,102875.22
2023-09-28T11:26:01.851Z,102917.88
2023-09-28T11:28:30.864Z,102979.56
2023-09-28T11:31:10.088Z,103016.03
2023-09-28T11:33:38.533Z,103034.25
2023-09-28T11:36:07.279Z,103042.91
2023-09-28T11:38:35.659Z,103044.53
2023-09-28T11:41:06.376Z,103075.09
2023-09-28T11:43:35.833Z,103095.84
2023-09-28T11:46:04.611Z,103139.31
2023-09-28T11:48:32.478Z,103178.44
2023-09-28T11:51:00.824Z,103234.13
2023-09-28T11:53:28.643Z,103277.59
2023-09-28T11:55:56.619Z,103302.88
2023-09-28T11:58:27.055Z,103318.47
2023-09-28T12:00:55.065Z,103357.63
2023-09-28T12:03:23.061Z,103383.69
2023-09-28T12:05:51.002Z,103420.25
2023-09-28T12:08:19.144Z,103446.34
2023-09-28T12:10:46.998Z,103471.59
2023-09-28T12:13:14.887Z,103491.59
2023-09-28T12:15:44.141Z,103513.38
2023-09-28T12:18:12.184Z,103532.50
2023-09-28T12:20:40.077Z,103549.03
2023-09-28T12:23:08.016Z,103566.44
2023-09-28T12:25:36.657Z,103576.75
2023-09-28T12:28:04.740Z,103586.31
2023-09-28T12:30:33.108Z,103601.97
2023-09-28T12:33:03.147Z,103607.94
2023-09-28T12:35:31.035Z,103608.75
2023-09-28T12:37:59.013Z,103639.25
2023-09-28T12:40:26.843Z,103631.34
2023-09-28T12:42:54.658Z,103635.63
2023-09-28T12:45:22.584Z,103647.81
2023-09-28T12:47:50.510Z,103664.31
2023-09-28T12:50:20.231Z,103688.69
2023-09-28T12:52:49.147Z,103726.19
2023-09-28T12:55:17.047Z,103731.41
2023-09-28T12:57:45.209Z,103722.47
2023-09-28T13:00:14.435Z,103760.91
2023-09-28T13:02:44.374Z,103795.78
2023-09-28T13:05:12.916Z,103841.97
2023-09-28T13:07:42.365Z,103838.41
2023-09-28T13:10:13.775Z,103861.03
2023-09-28T13:12:42.775Z,103885.44
2023-09-28T13:15:13.205Z,103899.38
2023-09-28T13:17:41.374Z,103890.50
2023-09-28T13:20:12.437Z,103910.56
2023-09-28T13:22:41.794Z,103953.28
2023-09-28T13:25:11.012Z,103973.31
2023-09-28T13:27:38.850Z,104016.16
2023-09-28T13:30:12.738Z,104009.03
2023-09-28T13:32:40.806Z,104001.09
2023-09-28T13:35:12.088Z,103967.81
2023-09-28T13:37:40.303Z,103978.22
2023-09-28T13:40:18.167Z,103987.72
2023-09-28T13:42:46.269Z,104021.78
2023-09-28T13:45:14.355Z,104049.66
2023-09-28T13:47:43.335Z,104081.13
2023-09-28T13:50:12.396Z,104107.22
2023-09-28T13:52:40.383Z,104145.66
2023-09-28T13:55:10.613Z,104171.91
2023-09-28T13:57:40.564Z,104150.72
2023-09-28T14:00:15.333Z,104134.00
2023-09-28T14:02:43.832Z,104105.03
2023-09-28T14:05:11.962Z,104109.38
2023-09-28T14:07:39.770Z,104080.34
2023-09-28T14:10:10.250Z,104101.28
2023-09-28T14:12:38.090Z,104101.19
2023-09-28T14:15:07.934Z,104109.00
2023-09-28T14:17:38.744Z,104113.28
2023-09-28T14:20:11.896Z,104049.28
2023-09-28T14:22:40.722Z,104038.69
2023-09-28T14:25:10.920Z,104000.09
2023-09-28T14:27:38.799Z,103992.09
2023-09-28T14:30:07.997Z,103973.66
2023-09-28T14:32:36.606Z,103963.06
2023-09-28T14:35:05.189Z,103941.97
2023-09-28T14:37:33.663Z,103891.16
2023-09-28T14:40:01.871Z,103829.88
2023-09-28T14:42:32.898Z,103777.28
2023-09-28T14:45:00.960Z,103731.75
2023-09-28T14:47:29.327Z,103694.97
2023-09-28T14:49:58.492Z,103664.28
2023-09-28T14:52:26.310Z,103605.75
2023-09-28T14:54:54.084Z,103551.44
2023-09-28T14:57:21.847Z,103521.63
2023-09-28T14:59:51.255Z,103455.25
2023-09-28T15:02:19.194Z,103398.47
2023-09-28T15:04:47.049Z,103369.69
2023-09-28T15:07:14.814Z,103338.13
2023-09-28T15:09:43.174Z,103306.69
2023-09-28T15:12:11.015Z,103274.34
2023-09-28T15:14:39.593Z,103255.16
2023-09-28T15:17:08.800Z,103221.03
2023-09-28T15:19:36.642Z,103204.41
2023-09-28T15:22:04.829Z,103184.25
2023-09-28T15:24:34.075Z,103181.63
2023-09-28T15:27:01.980Z,103130.91
2023-09-28T15:29:29.881Z,103096.03
2023-09-28T15:31:58.103Z,103069.78
2023-09-28T15:34:27.338Z,103041.97
2023-09-28T15:36:55.212Z,103015.75
2023-09-28T15:39:23.021Z,102993.81
2023-09-28T15:41:50.933Z,102965.91
2023-09-28T15:44:18.822Z,102958.91
2023-09-28T15:46:47.125Z,102944.91
2023-09-28T15:49:15.923Z,102935.28
2023-09-28T15:51:45.242Z,102911.78
2023-09-28T15:54:13.161Z,102874.22
2023-09-28T15:56:41.031Z,102852.38
2023-09-28T15:59:09.014Z,102834.09
2023-09-28T16:01:38.651Z,102821.81
2023-09-28T16:04:07.561Z,102792.09
2023-09-28T16:06:35.533Z,102759.97
2023-09-28T16:09:05.398Z,102726.84
2023-09-28T16:11:33.331Z,102694.66
2023-09-28T16:14:01.363Z,102656.34
2023-09-28T16:16:29.548Z,102623.22
2023-09-28T16:18:57.494Z,102590.22
2023-09-28T16:21:25.379Z,102533.63
2023-09-28T16:23:54.863Z,102484.97
2023-09-28T16:26:25.271Z,102400.72
2023-09-28T16:28:53.343Z,102319.13
2023-09-28T16:31:21.163Z,102232.41
2023-09-28T16:33:49.023Z,102150.84
2023-09-28T16:36:16.845Z,102067.66
2023-09-28T16:38:44.751Z,101982.75
2023-09-28T16:41:12.666Z,101895.25
2023-09-28T16:43:41.876Z,101814.00
2023-09-28T16:46:09.739Z,101730.00
2023-09-28T16:48:38.011Z,101653.00
2023-09-28T16:51:05.897Z,101584.72
2023-09-28T16:53:33.719Z,101527.75
2023-09-28T16:56:01.618Z,101467.25
2023-09-28T16:58:29.545Z,101403.28
2023-09-28T17:00:59.267Z,101348.16
2023-09-28T17:03:27.421Z,101285.13
2023-09-28T17:05:55.329Z,101229.94
2023-09-28T17:08:23.237Z,101174.75
2023-09-28T17:10:52.221Z,101126.53
2023-09-28T17:13:20.067Z,101083.56
2023-09-28T17:15:49.720Z,101033.50
2023-09-28T17:18:21.768Z,100989.59
2023-09-28T17:20:50.541Z,100941.41
2023-09-28T17:23:18.567Z,100892.25
2023-09-28T17:25:46.665Z,100848.41
2023-09-28T17:28:14.552Z,100806.28
2023-09-28T17:30:42.487Z,100760.63
2023-09-28T17:33:10.815Z,100722.06
2023-09-28T17:35:40.082Z,100687.75
2023-09-28T17:38:08.060Z,100650.69
2023-09-28T17:40:35.937Z,100617.25
2023-09-28T17:43:04.414Z,100585.41
2023-09-28T17:45:33.743Z,100562.25
2023-09-28T17:48:01.806Z,100542.53
2023-09-28T17:50:29.762Z,100522.00
2023-09-28T17:52:59.082Z,100498.75
2023-09-28T17:55:26.865Z,100489.34
2023-09-28T17:57:55.072Z,100479.09
2023-09-28T18:00:23.194Z,100457.63
2023-09-28T18:02:51.184Z,100434.38
2023-09-28T18:05:19.111Z,100423.41
2023-09-28T18:07:46.895Z,100396.69
2023-09-28T18:10:17.069Z,100377.97
2023-09-28T18:12:45.456Z,100349.59
2023-09-28T18:15:14.320Z,100333.38
2023-09-28T18:17:42.263Z,100312.78
2023-09-28T18:20:10.703Z,100286.13
2023-09-28T18:22:38.845Z,100268.13
2023-09-28T18:25:09.016Z,100251.94
2023-09-28T18:27:38.205Z,100236.66
2023-09-28T18:30:09.797Z,100212.56
2023-09-28T18:32:37.843Z,100191.16
2023-09-28T18:35:07.709Z,100166.28
2023-09-28T18:37:35.897Z,100144.00
2023-09-28T18:40:03.791Z,100133.88
2023-09-28T18:42:31.686Z,100105.47
2023-09-28T18:45:01.360Z,100094.50
2023-09-28T18:47:29.718Z,100076.50
2023-09-28T18:49:58.405Z,100061.16
2023-09-28T18:52:26.230Z,100042.34
2023-09-28T18:54:54.077Z,100030.47
2023-09-28T18:57:22.455Z,100009.06
2023-09-28T18:59:50.757Z,99993.63
2023-09-28T19:02:20.057Z,99986.69
2023-09-28T19:04:48.020Z,99988.59
2023-09-28T19:07:21.295Z,99982.75
2023-09-28T19:09:49.282Z,99954.44
2023-09-28T19:12:17.165Z,99932.09
2023-09-28T19:14:45.208Z,99922.91
2023-09-28T19:17:13.186Z,99894.53
2023-09-28T19:19:42.541Z,99878.38
2023-09-28T19:22:10.361Z,99851.00
2023-09-28T19:24:38.452Z,99830.47
2023-09-28T19:27:07.531Z,99818.78
2023-09-28T19:29:35.413Z,99787.78
2023-09-28T19:32:03.240Z,99776.72
2023-09-28T19:34:31.095Z,99748.56
2023-09-28T19:37:00.441Z,99734.09
2023-09-28T19:39:30.046Z,99731.69
2023-09-28T19:41:57.996Z,99718.88
2023-09-28T19:44:26.612Z,99706.06
2023-09-28T19:46:54.495Z,99692.38
2023-09-28T19:49:22.947Z,99677.91
2023-09-28T19:51:51.312Z,99657.38
2023-09-28T19:54:20.453Z,99637.78
2023-09-28T19:56:48.491Z,99620.78
2023-09-28T19:59:16.872Z,99603.72
2023-09-28T20:01:45.133Z,99592.66
2023-09-28T20:04:13.012Z,99573.00
2023-09-28T20:06:40.842Z,99561.94
2023-09-28T20:09:08.707Z,99555.28
2023-09-28T20:11:38.807Z,99542.59
2023-09-28T20:14:06.650Z,99517.72
2023-09-28T20:16:34.558Z,99495.53
2023-09-28T20:19:02.443Z,99471.66
2023-09-28T20:21:30.217Z,99462.28
2023-09-28T20:23:58.614Z,99450.41
2023-09-28T20:26:26.797Z,99433.34
2023-09-28T20:28:56.077Z,99419.72
2023-09-28T20:31:23.897Z,99411.19
2023-09-28T20:33:53.057Z,99402.75
2023-09-28T20:36:21.311Z,99396.94
2023-09-28T20:38:49.221Z,99388.38
2023-09-28T20:41:17.051Z,99370.41
2023-09-28T20:43:44.895Z,99357.69
2023-09-28T20:46:18.048Z,99339.00
2023-09-28T20:48:46.343Z,99328.69
2023-09-28T20:51:15.367Z,99321.09
2023-09-28T20:53:43.314Z,99313.50
2023-09-28T20:56:15.457Z,99305.06
2023-09-28T20:58:44.004Z,99296.66
2023-09-28T21:01:12.078Z,99276.16
2023-09-28T21:03:41.561Z,99266.00
2023-09-28T21:06:11.453Z,99248.81
2023-09-28T21:08:40.655Z,99249.03
2023-09-28T21:11:08.714Z,99231.06
2023-09-28T21:13:36.564Z,99218.38
2023-09-28T21:16:04.588Z,99208.19
2023-09-28T21:18:32.682Z,99205.81
2023-09-28T21:21:01.974Z,99198.94
2023-09-28T21:23:29.886Z,99193.03
2023-09-28T21:25:57.739Z,99193.03
2023-09-28T21:28:25.584Z,99185.31
2023-09-28T21:30:53.368Z,99177.75
2023-09-28T21:33:21.337Z,99183.91
2023-09-28T21:35:49.269Z,99169.34
2023-09-28T21:38:18.507Z,99145.44
2023-09-28T21:40:46.373Z,99137.03
2023-09-28T21:43:14.172Z,99122.56
2023-09-28T21:45:42.014Z,99105.63
2023-09-28T21:48:09.891Z,99092.88
2023-09-28T21:50:37.813Z,99080.91
2023-09-28T21:53:06.009Z,99076.75
2023-09-28T21:55:35.179Z,99062.31
2023-09-28T21:58:03.004Z,99046.94
2023-09-28T22:00:36.644Z,99037.69
2023-09-28T22:06:36.085Z,99007.91
2023-09-28T22:09:06.387Z,99000.34
2023-09-28T22:11:34.573Z,98993.50
2023-09-28T22:14:03.038Z,98985.06
2023-09-28T22:16:30.989Z,98968.91
2023-09-28T22:18:59.114Z,98956.09
2023-09-28T22:21:27.532Z,98945.13
2023-09-28T22:23:57.280Z,98935.81
2023-09-28T22:26:25.225Z,98927.38
2023-09-28T22:28:53.260Z,98911.22
2023-09-28T22:31:21.290Z,98904.44
2023-09-28T22:33:49.222Z,98885.78
2023-09-28T22:36:17.036Z,98883.28
2023-09-28T22:38:45.133Z,98869.59
2023-09-28T22:41:16.867Z,98868.06
2023-09-28T22:43:44.911Z,98869.00
2023-09-28T22:46:12.772Z,98863.91
2023-09-28T22:48:40.686Z,98850.31
2023-09-28T22:51:08.510Z,98837.59
2023-09-28T22:53:36.987Z,98830.81
2023-09-28T22:56:04.890Z,98827.41
2023-09-28T22:58:34.121Z,98825.75
2023-09-28T23:01:01.936Z,98820.69
2023-09-28T23:03:29.894Z,98818.19
2023-09-28T23:05:57.787Z,98819.13
2023-09-28T23:08:25.677Z,98819.13
2023-09-28T23:10:55.345Z,98809.66
2023-09-28T23:13:23.197Z,98810.63
2023-09-28T23:15:52.392Z,98805.53
2023-09-28T23:18:20.306Z,98809.91
2023-09-28T23:20:48.220Z,98803.88
2023-09-28T23:23:16.855Z,98801.41
2023-09-28T23:25:44.872Z,98784.41
2023-09-28T23:28:12.693Z,98781.22
2023-09-28T23:30:40.809Z,98767.41
2023-09-28T23:33:10.293Z,98762.41
2023-09-28T23:35:38.877Z,98761.59
2023-09-28T23:38:07.931Z,98764.31
2023-09-28T23:40:35.778Z,98755.69
2023-09-28T23:43:03.885Z,98745.53
2023-09-28T23:45:35.184Z,98744.78
2023-09-28T23:48:05.494Z,98733.69
2023-09-28T23:50:35.911Z,98731.09
2023-09-28T23:53:06.450Z,98735.47
2023-09-28T23:55:35.177Z,98736.28
2023-09-28T23:58:03.510Z,98741.47
